Gateswood, Alabama
Current Conditions -  °F | °C
As of 7:35 AM on Sunday 23 Nov 2014 (Local Time) from KCQF Reporting Station
Overcast Overcast  
Wind Chill: 72°   Ceiling: 700
Heat Index: 72°   Visibility: 7mi
Dew Point: 70°   Wind: 17mph
Humidity: 94%   Direction: 140°SE
Pressure: 29.75"   Gusts: 23mph
Location:  30.6097°N, 87.6111°W
Report Text: KCQF 231335Z AUTO 14015G20KT 7SM OVC007 22/21 A2975 RMK AO2
Loading
Personal Weather Stations






























Interactive Weather Map New forecast layout! Learn more

10-Day Weather Forecast

Advertisements
Track Severe Weather on mobile